sensor_id;sensor_type;location;lat;lon;timestamp;pressure;altitude;pressure_sealevel;temperature;humidity
56912;BME280;42800;53.928;27.662;2024-01-25T00:01:49;97490.00;;;3.97;100.00
56912;BME280;42800;53.928;27.662;2024-01-25T00:04:15;97506.88;;;3.87;100.00
56912;BME280;42800;53.928;27.662;2024-01-25T00:06:41;97500.19;;;4.04;100.00
56912;BME280;42800;53.928;27.662;2024-01-25T00:09:07;97515.72;;;3.84;100.00
56912;BME280;42800;53.928;27.662;2024-01-25T00:11:34;97511.44;;;3.83;100.00
56912;BME280;42800;53.928;27.662;2024-01-25T00:14:00;97506.38;;;3.81;100.00
56912;BME280;42800;53.928;27.662;2024-01-25T00:16:27;97504.41;;;4.01;100.00
56912;BME280;42800;53.928;27.662;2024-01-25T00:18:54;97510.50;;;3.52;100.00
56912;BME280;42800;53.928;27.662;2024-01-25T00:21:20;97483.47;;;3.78;100.00
56912;BME280;42800;53.928;27.662;2024-01-25T00:23:46;97480.94;;;3.89;100.00
56912;BME280;42800;53.928;27.662;2024-01-25T00:26:12;97477.78;;;3.84;100.00
56912;BME280;42800;53.928;27.662;2024-01-25T00:28:39;97466.72;;;3.96;100.00
56912;BME280;42800;53.928;27.662;2024-01-25T00:31:05;97471.88;;;4.01;100.00
56912;BME280;42800;53.928;27.662;2024-01-25T00:33:31;97472.34;;;4.07;100.00
56912;BME280;42800;53.928;27.662;2024-01-25T00:35:58;97473.00;;;4.00;100.00
56912;BME280;42800;53.928;27.662;2024-01-25T00:38:25;97474.97;;;4.03;100.00
56912;BME280;42800;53.928;27.662;2024-01-25T00:40:53;97468.13;;;3.86;100.00
56912;BME280;42800;53.928;27.662;2024-01-25T00:43:19;97465.00;;;4.07;100.00
56912;BME280;42800;53.928;27.662;2024-01-25T00:45:46;97469.09;;;3.97;100.00
56912;BME280;42800;53.928;27.662;2024-01-25T00:48:13;97468.66;;;3.95;100.00
56912;BME280;42800;53.928;27.662;2024-01-25T00:50:39;97466.72;;;3.96;100.00
56912;BME280;42800;53.928;27.662;2024-01-25T00:53:07;97452.66;;;3.87;100.00
56912;BME280;42800;53.928;27.662;2024-01-25T00:55:37;97449.75;;;3.99;100.00
56912;BME280;42800;53.928;27.662;2024-01-25T00:58:04;97446.69;;;3.77;100.00
56912;BME280;42800;53.928;27.662;2024-01-25T01:00:31;97437.13;;;3.84;100.00
56912;BME280;42800;53.928;27.662;2024-01-25T01:02:58;97431.34;;;4.12;100.00
56912;BME280;42800;53.928;27.662;2024-01-25T01:05:27;97438.38;;;4.16;100.00
56912;BME280;42800;53.928;27.662;2024-01-25T01:07:54;97441.94;;;3.94;100.00
56912;BME280;42800;53.928;27.662;2024-01-25T01:10:21;97437.88;;;4.07;100.00
56912;BME280;42800;53.928;27.662;2024-01-25T01:12:47;97439.81;;;4.07;100.00
56912;BME280;42800;53.928;27.662;2024-01-25T01:15:13;97449.69;;;3.95;100.00
56912;BME280;42800;53.928;27.662;2024-01-25T01:17:39;97435.19;;;3.84;100.00
56912;BME280;42800;53.928;27.662;2024-01-25T01:20:06;97431.91;;;3.98;100.00
56912;BME280;42800;53.928;27.662;2024-01-25T01:22:33;97431.25;;;4.05;100.00
56912;BME280;42800;53.928;27.662;2024-01-25T01:24:59;97412.78;;;4.14;100.00
56912;BME280;42800;53.928;27.662;2024-01-25T01:27:25;97428.53;;;4.31;100.00
56912;BME280;42800;53.928;27.662;2024-01-25T01:29:52;97431.41;;;4.15;100.00
56912;BME280;42800;53.928;27.662;2024-01-25T01:32:18;97421.34;;;4.16;100.00
56912;BME280;42800;53.928;27.662;2024-01-25T01:34:44;97436.19;;;4.25;100.00
56912;BME280;42800;53.928;27.662;2024-01-25T01:37:10;97439.66;;;3.99;100.00
56912;BME280;42800;53.928;27.662;2024-01-25T01:39:36;97430.81;;;4.03;100.00
56912;BME280;42800;53.928;27.662;2024-01-25T01:42:03;97427.69;;;4.00;100.00
56912;BME280;42800;53.928;27.662;2024-01-25T01:44:30;97423.22;;;4.12;100.00
56912;BME280;42800;53.928;27.662;2024-01-25T01:46:56;97432.81;;;4.32;100.00
56912;BME280;42800;53.928;27.662;2024-01-25T01:49:22;97442.25;;;4.15;100.00
56912;BME280;42800;53.928;27.662;2024-01-25T01:51:49;97438.59;;;4.04;100.00
56912;BME280;42800;53.928;27.662;2024-01-25T01:54:16;97435.75;;;4.20;100.00
56912;BME280;42800;53.928;27.662;2024-01-25T01:56:43;97434.31;;;4.03;100.00
56912;BME280;42800;53.928;27.662;2024-01-25T01:59:11;97441.75;;;4.10;100.00
56912;BME280;42800;53.928;27.662;2024-01-25T02:01:38;97422.69;;;4.03;100.00
56912;BME280;42800;53.928;27.662;2024-01-25T02:04:04;97418.66;;;4.19;100.00
56912;BME280;42800;53.928;27.662;2024-01-25T02:06:30;97417.09;;;3.92;100.00
56912;BME280;42800;53.928;27.662;2024-01-25T02:08:57;97409.31;;;4.13;100.00
56912;BME280;42800;53.928;27.662;2024-01-25T02:11:24;97425.34;;;4.25;100.00
56912;BME280;42800;53.928;27.662;2024-01-25T02:13:50;97423.25;;;4.15;100.00
56912;BME280;42800;53.928;27.662;2024-01-25T02:16:17;97423.78;;;4.24;100.00
56912;BME280;42800;53.928;27.662;2024-01-25T02:18:45;97431.09;;;4.20;100.00
56912;BME280;42800;53.928;27.662;2024-01-25T02:21:11;97433.88;;;4.24;100.00
56912;BME280;42800;53.928;27.662;2024-01-25T02:23:38;97430.44;;;4.27;100.00
56912;BME280;42800;53.928;27.662;2024-01-25T02:26:04;97445.06;;;4.22;100.00
56912;BME280;42800;53.928;27.662;2024-01-25T02:28:30;97428.44;;;4.24;100.00
56912;BME280;42800;53.928;27.662;2024-01-25T02:30:58;97415.19;;;4.19;100.00
56912;BME280;42800;53.928;27.662;2024-01-25T02:33:24;97423.84;;;4.28;100.00
56912;BME280;42800;53.928;27.662;2024-01-25T02:35:50;97420.97;;;4.17;100.00
56912;BME280;42800;53.928;27.662;2024-01-25T02:38:16;97414.19;;;4.04;100.00
56912;BME280;42800;53.928;27.662;2024-01-25T02:40:43;97408.69;;;4.23;100.00
56912;BME280;42800;53.928;27.662;2024-01-25T02:43:09;97407.03;;;4.19;100.00
56912;BME280;42800;53.928;27.662;2024-01-25T02:45:35;97397.41;;;4.21;100.00
56912;BME280;42800;53.928;27.662;2024-01-25T02:48:02;97401.47;;;4.35;100.00
56912;BME280;42800;53.928;27.662;2024-01-25T02:50:29;97421.66;;;4.11;100.00
56912;BME280;42800;53.928;27.662;2024-01-25T02:52:55;97408.03;;;4.07;100.00
56912;BME280;42800;53.928;27.662;2024-01-25T02:55:21;97414.34;;;4.15;100.00
56912;BME280;42800;53.928;27.662;2024-01-25T02:57:48;97427.66;;;3.97;100.00
56912;BME280;42800;53.928;27.662;2024-01-25T03:00:15;97422.72;;;4.06;100.00
56912;BME280;42800;53.928;27.662;2024-01-25T03:02:41;97408.41;;;4.32;100.00
56912;BME280;42800;53.928;27.662;2024-01-25T03:05:07;97417.22;;;4.25;100.00
56912;BME280;42800;53.928;27.662;2024-01-25T03:07:33;97423.84;;;4.01;100.00
56912;BME280;42800;53.928;27.662;2024-01-25T03:10:00;97428.16;;;4.06;100.00
56912;BME280;42800;53.928;27.662;2024-01-25T03:12:26;97412.31;;;4.08;100.00
56912;BME280;42800;53.928;27.662;2024-01-25T03:14:52;97429.94;;;4.21;100.00
56912;BME280;42800;53.928;27.662;2024-01-25T03:17:19;97419.00;;;4.14;100.00
56912;BME280;42800;53.928;27.662;2024-01-25T03:19:45;97438.19;;;4.29;100.00
56912;BME280;42800;53.928;27.662;2024-01-25T03:22:11;97448.81;;;4.14;100.00
56912;BME280;42800;53.928;27.662;2024-01-25T03:24:37;97440.88;;;4.02;100.00
56912;BME280;42800;53.928;27.662;2024-01-25T03:27:04;97434.19;;;3.96;100.00
56912;BME280;42800;53.928;27.662;2024-01-25T03:29:30;97442.69;;;4.17;100.00
56912;BME280;42800;53.928;27.662;2024-01-25T03:31:57;97438.03;;;4.18;100.00
56912;BME280;42800;53.928;27.662;2024-01-25T03:34:23;97441.47;;;4.15;100.00
56912;BME280;42800;53.928;27.662;2024-01-25T03:36:49;97440.78;;;3.95;100.00
56912;BME280;42800;53.928;27.662;2024-01-25T03:39:18;97432.66;;;4.21;100.00
56912;BME280;42800;53.928;27.662;2024-01-25T03:41:44;97434.94;;;4.19;100.00
56912;BME280;42800;53.928;27.662;2024-01-25T03:44:10;97440.78;;;4.21;100.00
56912;BME280;42800;53.928;27.662;2024-01-25T03:46:37;97442.25;;;4.15;100.00
56912;BME280;42800;53.928;27.662;2024-01-25T03:49:03;97445.22;;;4.07;100.00
56912;BME280;42800;53.928;27.662;2024-01-25T03:51:30;97451.88;;;4.13;100.00
56912;BME280;42800;53.928;27.662;2024-01-25T03:53:56;97447.69;;;4.15;100.00
56912;BME280;42800;53.928;27.662;2024-01-25T03:56:23;97447.81;;;3.99;100.00
56912;BME280;42800;53.928;27.662;2024-01-25T03:58:50;97441.00;;;4.09;100.00
56912;BME280;42800;53.928;27.662;2024-01-25T04:01:16;97425.72;;;3.97;100.00
56912;BME280;42800;53.928;27.662;2024-01-25T04:03:42;97433.75;;;3.90;100.00
56912;BME280;42800;53.928;27.662;2024-01-25T04:06:09;97425.75;;;4.01;100.00
56912;BME280;42800;53.928;27.662;2024-01-25T04:08:35;97414.75;;;3.90;100.00
56912;BME280;42800;53.928;27.662;2024-01-25T04:11:01;97421.22;;;4.09;100.00
56912;BME280;42800;53.928;27.662;2024-01-25T04:13:27;97427.78;;;3.81;100.00
56912;BME280;42800;53.928;27.662;2024-01-25T04:15:53;97432.34;;;4.00;100.00
56912;BME280;42800;53.928;27.662;2024-01-25T04:18:19;97431.25;;;4.05;100.00
56912;BME280;42800;53.928;27.662;2024-01-25T04:20:45;97443.09;;;3.96;100.00
56912;BME280;42800;53.928;27.662;2024-01-25T04:23:13;97438.59;;;4.04;100.00
56912;BME280;42800;53.928;27.662;2024-01-25T04:25:39;97437.56;;;4.12;100.00
56912;BME280;42800;53.928;27.662;2024-01-25T04:28:05;97443.53;;;3.98;100.00
56912;BME280;42800;53.928;27.662;2024-01-25T04:30:32;97448.19;;;3.98;100.00
56912;BME280;42800;53.928;27.662;2024-01-25T04:32:58;97430.88;;;4.06;100.00
56912;BME280;42800;53.928;27.662;2024-01-25T04:35:24;97430.31;;;3.93;100.00
56912;BME280;42800;53.928;27.662;2024-01-25T04:37:50;97420.63;;;3.96;100.00
56912;BME280;42800;53.928;27.662;2024-01-25T04:40:17;97432.59;;;3.91;100.00
56912;BME280;42800;53.928;27.662;2024-01-25T04:42:44;97422.69;;;4.03;100.00
56912;BME280;42800;53.928;27.662;2024-01-25T04:45:11;97427.31;;;4.02;100.00
56912;BME280;42800;53.928;27.662;2024-01-25T04:47:37;97424.88;;;3.93;100.00
56912;BME280;42800;53.928;27.662;2024-01-25T04:50:04;97420.91;;;3.87;100.00
56912;BME280;42800;53.928;27.662;2024-01-25T04:52:30;97426.91;;;4.00;100.00
56912;BME280;42800;53.928;27.662;2024-01-25T04:54:57;97429.88;;;3.91;100.00
56912;BME280;42800;53.928;27.662;2024-01-25T04:57:23;97424.94;;;3.97;100.00
56912;BME280;42800;53.928;27.662;2024-01-25T04:59:49;97420.44;;;4.08;100.00
56912;BME280;42800;53.928;27.662;2024-01-25T05:02:16;97422.94;;;3.94;100.00
56912;BME280;42800;53.928;27.662;2024-01-25T05:04:42;97425.81;;;4.05;100.00
56912;BME280;42800;53.928;27.662;2024-01-25T05:07:08;97429.28;;;3.78;100.00
56912;BME280;42800;53.928;27.662;2024-01-25T05:09:34;97424.31;;;4.07;100.00
56912;BME280;42800;53.928;27.662;2024-01-25T05:12:00;97429.84;;;4.14;100.00
56912;BME280;42800;53.928;27.662;2024-01-25T05:14:28;97432.50;;;4.11;100.00
56912;BME280;42800;53.928;27.662;2024-01-25T05:16:54;97430.31;;;4.20;100.00
56912;BME280;42800;53.928;27.662;2024-01-25T05:19:20;97443.47;;;4.18;100.00
56912;BME280;42800;53.928;27.662;2024-01-25T05:21:46;97449.50;;;4.08;100.00
56912;BME280;42800;53.928;27.662;2024-01-25T05:24:12;97448.78;;;4.11;100.00
56912;BME280;42800;53.928;27.662;2024-01-25T05:26:39;97447.47;;;4.01;100.00
56912;BME280;42800;53.928;27.662;2024-01-25T05:29:05;97447.13;;;4.06;100.00
56912;BME280;42800;53.928;27.662;2024-01-25T05:31:32;97438.84;;;4.22;100.00
56912;BME280;42800;53.928;27.662;2024-01-25T05:33:58;97444.75;;;4.28;100.00
56912;BME280;42800;53.928;27.662;2024-01-25T05:36:24;97452.53;;;4.56;100.00
56912;BME280;42800;53.928;27.662;2024-01-25T05:38:50;97464.69;;;4.39;100.00
56912;BME280;42800;53.928;27.662;2024-01-25T05:41:16;97468.03;;;4.29;100.00
56912;BME280;42800;53.928;27.662;2024-01-25T05:43:43;97462.59;;;4.29;100.00
56912;BME280;42800;53.928;27.662;2024-01-25T05:46:09;97464.06;;;4.22;100.00
56912;BME280;42800;53.928;27.662;2024-01-25T05:48:36;97457.91;;;4.25;100.00
56912;BME280;42800;53.928;27.662;2024-01-25T05:51:02;97459.06;;;4.24;100.00
56912;BME280;42800;53.928;27.662;2024-01-25T05:53:28;97453.94;;;4.19;100.00
56912;BME280;42800;53.928;27.662;2024-01-25T05:55:54;97448.84;;;4.41;100.00
56912;BME280;42800;53.928;27.662;2024-01-25T05:58:21;97461.38;;;4.26;100.00
56912;BME280;42800;53.928;27.662;2024-01-25T06:00:47;97456.03;;;4.30;100.00
56912;BME280;42800;53.928;27.662;2024-01-25T06:03:13;97461.94;;;4.35;100.00
56912;BME280;42800;53.928;27.662;2024-01-25T06:05:40;97464.00;;;4.19;100.00
56912;BME280;42800;53.928;27.662;2024-01-25T06:08:06;97465.84;;;4.38;100.00
56912;BME280;42800;53.928;27.662;2024-01-25T06:10:32;97465.16;;;4.44;100.00
56912;BME280;42800;53.928;27.662;2024-01-25T06:12:58;97471.47;;;4.25;100.00
56912;BME280;42800;53.928;27.662;2024-01-25T06:15:25;97477.47;;;4.38;100.00
56912;BME280;42800;53.928;27.662;2024-01-25T06:17:51;97479.09;;;4.43;100.00
56912;BME280;42800;53.928;27.662;2024-01-25T06:20:17;97475.28;;;4.47;100.00
56912;BME280;42800;53.928;27.662;2024-01-25T06:22:44;97480.94;;;4.12;100.00
56912;BME280;42800;53.928;27.662;2024-01-25T06:25:10;97471.56;;;4.33;100.00
56912;BME280;42800;53.928;27.662;2024-01-25T06:27:36;97473.44;;;4.29;100.00
56912;BME280;42800;53.928;27.662;2024-01-25T06:30:03;97478.34;;;4.19;100.00
56912;BME280;42800;53.928;27.662;2024-01-25T06:32:29;97480.13;;;4.35;100.00
56912;BME280;42800;53.928;27.662;2024-01-25T06:34:55;97484.41;;;4.36;100.00
56912;BME280;42800;53.928;27.662;2024-01-25T06:37:22;97485.06;;;4.29;100.00
56912;BME280;42800;53.928;27.662;2024-01-25T06:39:49;97485.47;;;4.28;100.00
56912;BME280;42800;53.928;27.662;2024-01-25T06:42:15;97479.72;;;4.33;100.00
56912;BME280;42800;53.928;27.662;2024-01-25T06:44:41;97479.25;;;4.27;100.00
56912;BME280;42800;53.928;27.662;2024-01-25T06:47:07;97490.69;;;4.40;100.00
56912;BME280;42800;53.928;27.662;2024-01-25T06:49:33;97492.34;;;4.21;100.00
56912;BME280;42800;53.928;27.662;2024-01-25T06:51:59;97494.25;;;4.21;100.00
56912;BME280;42800;53.928;27.662;2024-01-25T06:54:26;97484.97;;;4.22;100.00
56912;BME280;42800;53.928;27.662;2024-01-25T06:56:52;97481.91;;;4.23;100.00
56912;BME280;42800;53.928;27.662;2024-01-25T06:59:21;97486.72;;;4.34;100.00
56912;BME280;42800;53.928;27.662;2024-01-25T07:01:47;97499.56;;;4.37;100.00
56912;BME280;42800;53.928;27.662;2024-01-25T07:04:14;97495.38;;;4.43;100.00
56912;BME280;42800;53.928;27.662;2024-01-25T07:06:40;97505.50;;;4.23;100.00
56912;BME280;42800;53.928;27.662;2024-01-25T07:09:06;97499.06;;;4.31;100.00
56912;BME280;42800;53.928;27.662;2024-01-25T07:11:33;97502.13;;;4.30;100.00
56912;BME280;42800;53.928;27.662;2024-01-25T07:13:59;97509.06;;;4.50;100.00
56912;BME280;42800;53.928;27.662;2024-01-25T07:16:26;97514.88;;;4.52;100.00
56912;BME280;42800;53.928;27.662;2024-01-25T07:18:52;97513.19;;;4.40;100.00
56912;BME280;42800;53.928;27.662;2024-01-25T07:21:18;97518.72;;;4.47;100.00
56912;BME280;42800;53.928;27.662;2024-01-25T07:23:44;97517.41;;;4.64;100.00
56912;BME280;42800;53.928;27.662;2024-01-25T07:26:16;97519.78;;;4.69;100.00
56912;BME280;42800;53.928;27.662;2024-01-25T07:28:43;97521.53;;;4.55;100.00
56912;BME280;42800;53.928;27.662;2024-01-25T07:31:09;97525.84;;;4.59;100.00
56912;BME280;42800;53.928;27.662;2024-01-25T07:33:36;97532.00;;;4.83;100.00
56912;BME280;42800;53.928;27.662;2024-01-25T07:36:03;97531.56;;;4.51;100.00
56912;BME280;42800;53.928;27.662;2024-01-25T07:38:29;97524.75;;;4.90;100.00
56912;BME280;42800;53.928;27.662;2024-01-25T07:40:55;97546.94;;;4.96;100.00
56912;BME280;42800;53.928;27.662;2024-01-25T07:43:21;97542.31;;;4.97;100.00
56912;BME280;42800;53.928;27.662;2024-01-25T07:45:47;97529.16;;;4.72;100.00
56912;BME280;42800;53.928;27.662;2024-01-25T07:48:14;97537.91;;;4.88;100.00
56912;BME280;42800;53.928;27.662;2024-01-25T07:50:41;97535.44;;;4.80;100.00
56912;BME280;42800;53.928;27.662;2024-01-25T07:53:07;97535.44;;;4.53;100.00
56912;BME280;42800;53.928;27.662;2024-01-25T07:55:33;97548.81;;;4.65;100.00
56912;BME280;42800;53.928;27.662;2024-01-25T07:57:59;97538.84;;;4.73;100.00
56912;BME280;42800;53.928;27.662;2024-01-25T08:00:26;97538.47;;;4.48;100.00
56912;BME280;42800;53.928;27.662;2024-01-25T08:02:52;97532.50;;;4.39;100.00
56912;BME280;42800;53.928;27.662;2024-01-25T08:05:19;97551.56;;;4.42;100.00
56912;BME280;42800;53.928;27.662;2024-01-25T08:07:46;97546.13;;;4.42;100.00
56912;BME280;42800;53.928;27.662;2024-01-25T08:10:12;97547.41;;;4.25;100.00
56912;BME280;42800;53.928;27.662;2024-01-25T08:12:38;97543.53;;;4.76;100.00
56912;BME280;42800;53.928;27.662;2024-01-25T08:15:06;97544.13;;;4.62;100.00
56912;BME280;42800;53.928;27.662;2024-01-25T08:17:32;97542.66;;;4.19;100.00
56912;BME280;42800;53.928;27.662;2024-01-25T08:20:01;97542.25;;;4.40;100.00
56912;BME280;42800;53.928;27.662;2024-01-25T08:22:28;97560.66;;;4.77;100.00
56912;BME280;42800;53.928;27.662;2024-01-25T08:24:54;97554.19;;;4.62;100.00
56912;BME280;42800;53.928;27.662;2024-01-25T08:27:21;97544.06;;;4.85;100.00
56912;BME280;42800;53.928;27.662;2024-01-25T08:29:47;97546.53;;;4.94;100.00
56912;BME280;42800;53.928;27.662;2024-01-25T08:32:13;97537.88;;;4.85;100.00
56912;BME280;42800;53.928;27.662;2024-01-25T08:34:39;97522.16;;;4.71;100.00
56912;BME280;42800;53.928;27.662;2024-01-25T08:37:05;97514.09;;;4.25;100.00
56912;BME280;42800;53.928;27.662;2024-01-25T08:39:32;97531.91;;;4.49;100.00
56912;BME280;42800;53.928;27.662;2024-01-25T08:41:58;97531.75;;;4.65;100.00
56912;BME280;42800;53.928;27.662;2024-01-25T08:44:27;97529.03;;;4.65;100.00
56912;BME280;42800;53.928;27.662;2024-01-25T08:46:53;97516.81;;;4.52;100.00
56912;BME280;42800;53.928;27.662;2024-01-25T08:49:19;97521.97;;;4.57;100.00
56912;BME280;42800;53.928;27.662;2024-01-25T08:51:46;97533.94;;;4.56;100.00
56912;BME280;42800;53.928;27.662;2024-01-25T08:54:12;97541.91;;;4.45;100.00
56912;BME280;42800;53.928;27.662;2024-01-25T08:56:39;97550.75;;;4.65;100.00
56912;BME280;42800;53.928;27.662;2024-01-25T08:59:05;97542.03;;;4.29;100.00
56912;BME280;42800;53.928;27.662;2024-01-25T09:01:31;97570.72;;;4.27;100.00
56912;BME280;42800;53.928;27.662;2024-01-25T09:03:57;97572.88;;;3.75;100.00
56912;BME280;42800;53.928;27.662;2024-01-25T09:06:28;97581.31;;;3.93;100.00
56912;BME280;42800;53.928;27.662;2024-01-25T09:08:54;97586.09;;;3.99;100.00
56912;BME280;42800;53.928;27.662;2024-01-25T09:11:20;97592.31;;;4.00;100.00
56912;BME280;42800;53.928;27.662;2024-01-25T09:13:47;97579.03;;;3.95;100.00
56912;BME280;42800;53.928;27.662;2024-01-25T09:16:14;97578.19;;;3.91;100.00
56912;BME280;42800;53.928;27.662;2024-01-25T09:18:40;97579.97;;;4.25;100.00
56912;BME280;42800;53.928;27.662;2024-01-25T09:21:06;97591.06;;;4.17;100.00
56912;BME280;42800;53.928;27.662;2024-01-25T09:23:32;97582.22;;;3.77;100.00
56912;BME280;42800;53.928;27.662;2024-01-25T09:25:58;97598.53;;;4.00;100.00
56912;BME280;42800;53.928;27.662;2024-01-25T09:28:24;97595.81;;;4.00;100.00
56912;BME280;42800;53.928;27.662;2024-01-25T09:30:51;97592.53;;;4.34;100.00
56912;BME280;42800;53.928;27.662;2024-01-25T09:33:18;97582.84;;;4.36;100.00
56912;BME280;42800;53.928;27.662;2024-01-25T09:35:44;97574.66;;;4.10;100.00
56912;BME280;42800;53.928;27.662;2024-01-25T09:38:13;97594.97;;;4.19;100.00
56912;BME280;42800;53.928;27.662;2024-01-25T09:40:39;97581.66;;;4.11;100.00
56912;BME280;42800;53.928;27.662;2024-01-25T09:43:05;97578.25;;;4.37;100.00
56912;BME280;42800;53.928;27.662;2024-01-25T09:45:32;97571.94;;;4.33;100.00
56912;BME280;42800;53.928;27.662;2024-01-25T09:47:59;97564.19;;;4.31;100.00
56912;BME280;42800;53.928;27.662;2024-01-25T09:50:25;97549.13;;;4.34;100.00
56912;BME280;42800;53.928;27.662;2024-01-25T09:52:54;97526.59;;;3.64;100.00
56912;BME280;42800;53.928;27.662;2024-01-25T09:55:24;97568.16;;;4.14;100.00
56912;BME280;42800;53.928;27.662;2024-01-25T09:57:53;97556.44;;;3.87;100.00
56912;BME280;42800;53.928;27.662;2024-01-25T10:00:19;97550.34;;;3.71;100.00
56912;BME280;42800;53.928;27.662;2024-01-25T10:02:47;97572.16;;;4.20;100.00
56912;BME280;42800;53.928;27.662;2024-01-25T10:05:15;97552.66;;;4.15;100.00
56912;BME280;42800;53.928;27.662;2024-01-25T10:07:42;97553.28;;;4.05;100.00
56912;BME280;42800;53.928;27.662;2024-01-25T10:10:09;97573.66;;;3.75;100.00
56912;BME280;42800;53.928;27.662;2024-01-25T10:12:37;97598.66;;;4.08;100.00
56912;BME280;42800;53.928;27.662;2024-01-25T10:15:04;97600.66;;;4.34;100.00
56912;BME280;42800;53.928;27.662;2024-01-25T10:17:31;97573.66;;;4.18;100.00
56912;BME280;42800;53.928;27.662;2024-01-25T10:19:57;97566.44;;;4.06;100.00
56912;BME280;42800;53.928;27.662;2024-01-25T10:22:25;97556.00;;;4.28;100.00
56912;BME280;42800;53.928;27.662;2024-01-25T10:24:52;97543.09;;;4.21;100.00
56912;BME280;42800;53.928;27.662;2024-01-25T10:27:19;97546.53;;;4.18;100.00
56912;BME280;42800;53.928;27.662;2024-01-25T10:29:45;97537.00;;;4.28;100.00
56912;BME280;42800;53.928;27.662;2024-01-25T10:32:12;97518.69;;;3.98;100.00
56912;BME280;42800;53.928;27.662;2024-01-25T10:34:38;97509.66;;;4.13;100.00
56912;BME280;42800;53.928;27.662;2024-01-25T10:37:05;97525.97;;;4.17;100.00
56912;BME280;42800;53.928;27.662;2024-01-25T10:39:33;97533.44;;;4.23;100.00
56912;BME280;42800;53.928;27.662;2024-01-25T10:42:00;97547.84;;;4.28;100.00
56912;BME280;42800;53.928;27.662;2024-01-25T10:44:26;97542.25;;;4.17;100.00
56912;BME280;42800;53.928;27.662;2024-01-25T10:46:52;97535.13;;;4.32;100.00
56912;BME280;42800;53.928;27.662;2024-01-25T10:49:20;97555.09;;;3.97;100.00
56912;BME280;42800;53.928;27.662;2024-01-25T10:51:47;97555.38;;;4.15;100.00
56912;BME280;42800;53.928;27.662;2024-01-25T10:54:14;97565.91;;;4.43;100.00
56912;BME280;42800;53.928;27.662;2024-01-25T10:56:41;97523.25;;;4.40;100.00
56912;BME280;42800;53.928;27.662;2024-01-25T10:59:08;97483.72;;;4.42;100.00
56912;BME280;42800;53.928;27.662;2024-01-25T11:01:34;97450.50;;;4.22;100.00
56912;BME280;42800;53.928;27.662;2024-01-25T11:04:01;97467.81;;;4.14;100.00
56912;BME280;42800;53.928;27.662;2024-01-25T11:06:27;97477.16;;;4.17;100.00
56912;BME280;42800;53.928;27.662;2024-01-25T11:09:03;97491.19;;;3.99;100.00
56912;BME280;42800;53.928;27.662;2024-01-25T11:11:31;97523.63;;;4.15;100.00
56912;BME280;42800;53.928;27.662;2024-01-25T11:13:58;97508.06;;;4.12;100.00
56912;BME280;42800;53.928;27.662;2024-01-25T11:16:28;97537.63;;;3.75;100.00
56912;BME280;42800;53.928;27.662;2024-01-25T11:18:56;97562.47;;;4.23;100.00
56912;BME280;42800;53.928;27.662;2024-01-25T11:21:29;97553.56;;;4.22;100.00
56912;BME280;42800;53.928;27.662;2024-01-25T11:24:01;97538.66;;;3.90;100.00
56912;BME280;42800;53.928;27.662;2024-01-25T11:26:28;97573.63;;;3.95;100.00
56912;BME280;42800;53.928;27.662;2024-01-25T11:28:55;97576.13;;;4.04;100.00
56912;BME280;42800;53.928;27.662;2024-01-25T11:31:22;97564.78;;;3.98;100.00
56912;BME280;42800;53.928;27.662;2024-01-25T11:33:48;97552.53;;;3.85;100.00
56912;BME280;42800;53.928;27.662;2024-01-25T11:36:15;97553.13;;;3.74;100.00
56912;BME280;42800;53.928;27.662;2024-01-25T11:38:41;97551.63;;;3.58;100.00
56912;BME280;42800;53.928;27.662;2024-01-25T11:41:07;97576.34;;;3.75;100.00
56912;BME280;42800;53.928;27.662;2024-01-25T11:43:33;97575.88;;;3.50;100.00
56912;BME280;42800;53.928;27.662;2024-01-25T11:45:59;97607.59;;;3.89;100.00
56912;BME280;42800;53.928;27.662;2024-01-25T11:48:27;97585.41;;;3.83;100.00
56912;BME280;42800;53.928;27.662;2024-01-25T11:50:53;97607.03;;;3.80;100.00
56912;BME280;42800;53.928;27.662;2024-01-25T11:53:19;97597.97;;;3.91;100.00
56912;BME280;42800;53.928;27.662;2024-01-25T11:55:45;97610.03;;;3.94;100.00
56912;BME280;42800;53.928;27.662;2024-01-25T11:58:11;97599.13;;;3.71;100.00
56912;BME280;42800;53.928;27.662;2024-01-25T12:00:37;97609.97;;;3.71;100.00
56912;BME280;42800;53.928;27.662;2024-01-25T12:03:03;97612.16;;;3.85;100.00
56912;BME280;42800;53.928;27.662;2024-01-25T12:05:30;97585.13;;;3.69;100.00
56912;BME280;42800;53.928;27.662;2024-01-25T12:07:56;97593.78;;;3.74;100.00
56912;BME280;42800;53.928;27.662;2024-01-25T12:10:22;97581.22;;;3.66;100.00
56912;BME280;42800;53.928;27.662;2024-01-25T12:12:49;97582.94;;;3.55;100.00
56912;BME280;42800;53.928;27.662;2024-01-25T12:15:15;97621.78;;;3.63;100.00
56912;BME280;42800;53.928;27.662;2024-01-25T12:17:41;97629.84;;;3.78;100.00
56912;BME280;42800;53.928;27.662;2024-01-25T12:20:08;97626.44;;;3.82;100.00
56912;BME280;42800;53.928;27.662;2024-01-25T12:22:37;97633.06;;;3.84;100.00
56912;BME280;42800;53.928;27.662;2024-01-25T12:25:07;97617.97;;;3.64;100.00
56912;BME280;42800;53.928;27.662;2024-01-25T12:27:33;97613.44;;;3.91;100.00
56912;BME280;42800;53.928;27.662;2024-01-25T12:29:59;97594.75;;;3.86;100.00
56912;BME280;42800;53.928;27.662;2024-01-25T12:32:25;97564.81;;;3.78;100.00
56912;BME280;42800;53.928;27.662;2024-01-25T12:34:54;97542.28;;;3.55;100.00
56912;BME280;42800;53.928;27.662;2024-01-25T12:37:20;97566.78;;;3.82;100.00
56912;BME280;42800;53.928;27.662;2024-01-25T12:39:47;97570.00;;;3.87;100.00
56912;BME280;42800;53.928;27.662;2024-01-25T12:42:13;97565.72;;;3.86;100.00
56912;BME280;42800;53.928;27.662;2024-01-25T12:44:39;97574.16;;;3.81;100.00
56912;BME280;42800;53.928;27.662;2024-01-25T12:47:05;97558.59;;;3.78;100.00